createdAt,value
2018-05-09T00:00:59.335Z,1008.03
2018-05-09T00:01:59.334Z,1008.04
2018-05-09T00:02:59.341Z,1008.02
2018-05-09T00:03:59.339Z,1008.02
2018-05-09T00:04:59.342Z,1008.01
2018-05-09T00:05:59.341Z,1008.03
2018-05-09T00:06:59.334Z,1008.01
2018-05-09T00:07:59.334Z,1008.03
2018-05-09T00:08:59.335Z,1008.01
2018-05-09T00:09:59.342Z,1008.01
2018-05-09T00:10:59.370Z,1008.03
2018-05-09T00:11:59.404Z,1008.01
2018-05-09T00:12:59.336Z,1008.02
2018-05-09T00:13:59.349Z,1008.01
2018-05-09T00:14:59.335Z,1008.02
2018-05-09T00:15:59.335Z,1008.03
2018-05-09T00:16:59.334Z,1007.99
2018-05-09T00:17:59.341Z,1008.00
2018-05-09T00:18:59.339Z,1008.02
2018-05-09T00:19:59.331Z,1008.00
2018-05-09T00:20:59.334Z,1007.98
2018-05-09T00:21:59.343Z,1007.98
2018-05-09T00:22:59.340Z,1007.97
2018-05-09T00:23:59.341Z,1007.97
2018-05-09T00:24:59.356Z,1007.97
2018-05-09T00:25:59.343Z,1007.94
2018-05-09T00:26:59.335Z,1007.95
2018-05-09T00:27:59.335Z,1007.97
2018-05-09T00:28:59.336Z,1007.96
2018-05-09T00:29:59.336Z,1007.96
2018-05-09T00:30:59.342Z,1007.97
2018-05-09T00:31:59.337Z,1007.93
2018-05-09T00:32:59.343Z,1007.94
2018-05-09T00:33:59.335Z,1007.89
2018-05-09T00:34:59.341Z,1007.91
2018-05-09T00:35:59.336Z,1007.93
2018-05-09T00:36:59.338Z,1007.91
2018-05-09T00:37:59.336Z,1007.91
2018-05-09T00:38:59.337Z,1007.89
2018-05-09T00:39:59.342Z,1007.91
2018-05-09T00:40:59.337Z,1007.93
2018-05-09T00:41:59.337Z,1007.91
2018-05-09T00:42:59.355Z,1007.89
2018-05-09T00:43:59.332Z,1007.86
2018-05-09T00:44:59.337Z,1007.90
2018-05-09T00:45:59.337Z,1007.86
2018-05-09T00:46:59.338Z,1007.88
2018-05-09T00:47:59.335Z,1007.90
2018-05-09T00:48:59.337Z,1007.89
2018-05-09T00:49:59.337Z,1007.86
2018-05-09T00:50:59.337Z,1007.92
2018-05-09T00:51:59.331Z,1007.91
2018-05-09T00:52:59.336Z,1007.91
2018-05-09T00:53:59.336Z,1007.89
2018-05-09T00:54:59.337Z,1007.89
2018-05-09T00:55:59.336Z,1007.87
2018-05-09T00:56:59.340Z,1007.87
2018-05-09T00:57:59.419Z,1007.88
2018-05-09T00:58:59.332Z,1007.87
2018-05-09T00:59:59.344Z,1007.87
2018-05-09T01:00:59.338Z,1007.89
2018-05-09T01:01:59.336Z,1007.85
2018-05-09T01:02:59.337Z,1007.85
2018-05-09T01:03:59.335Z,1007.81
2018-05-09T01:04:59.336Z,1007.83
2018-05-09T01:05:59.336Z,1007.84
2018-05-09T01:06:59.346Z,1007.82
2018-05-09T01:07:59.336Z,1007.83
2018-05-09T01:08:59.360Z,1007.80
2018-05-09T01:09:59.334Z,1007.78
2018-05-09T01:10:59.336Z,1007.79
2018-05-09T01:11:59.346Z,1007.77
2018-05-09T01:12:59.337Z,1007.79
2018-05-09T01:13:59.335Z,1007.75
2018-05-09T01:14:59.335Z,1007.80
2018-05-09T01:15:59.343Z,1007.78
2018-05-09T01:16:59.338Z,1007.73
2018-05-09T01:17:59.333Z,1007.72
2018-05-09T01:18:59.339Z,1007.74
2018-05-09T01:19:59.336Z,1007.73
2018-05-09T01:20:59.340Z,1007.72
2018-05-09T01:21:59.345Z,1007.74
2018-05-09T01:22:59.334Z,1007.73
2018-05-09T01:23:59.340Z,1007.70
2018-05-09T01:24:59.363Z,1007.73
2018-05-09T01:25:59.340Z,1007.73
2018-05-09T01:26:59.336Z,1007.73
2018-05-09T01:27:59.340Z,1007.68
2018-05-09T01:28:59.338Z,1007.73
2018-05-09T01:29:59.342Z,1007.72
2018-05-09T01:30:59.339Z,1007.72
2018-05-09T01:31:59.343Z,1007.72
2018-05-09T01:32:59.337Z,1007.70
2018-05-09T01:33:59.338Z,1007.70
2018-05-09T01:34:59.330Z,1007.72
2018-05-09T01:35:59.337Z,1007.65
2018-05-09T01:36:59.332Z,1007.68
2018-05-09T01:37:59.339Z,1007.66
2018-05-09T01:38:59.337Z,1007.68
2018-05-09T01:39:59.340Z,1007.69
2018-05-09T01:40:59.331Z,1007.63
2018-05-09T01:41:59.332Z,1007.61
2018-05-09T01:42:59.329Z,1007.61
2018-05-09T01:43:59.334Z,1007.57
2018-05-09T01:44:59.331Z,1007.60
2018-05-09T01:45:59.329Z,1007.57
2018-05-09T01:46:59.334Z,1007.53
2018-05-09T01:47:59.328Z,1007.53
2018-05-09T01:48:59.329Z,1007.54
2018-05-09T01:49:59.328Z,1007.53
2018-05-09T01:50:59.326Z,1007.51
2018-05-09T01:51:59.338Z,1007.53
2018-05-09T01:52:59.338Z,1007.52
2018-05-09T01:53:59.332Z,1007.53
2018-05-09T01:54:59.369Z,1007.54
2018-05-09T01:55:59.326Z,1007.57
2018-05-09T01:56:59.321Z,1007.52
2018-05-09T01:57:59.324Z,1007.57
2018-05-09T01:58:59.331Z,1007.57
2018-05-09T01:59:59.324Z,1007.55
2018-05-09T02:00:59.324Z,1007.55
2018-05-09T02:01:59.321Z,1007.54
2018-05-09T02:02:59.349Z,1007.57
2018-05-09T02:03:59.319Z,1007.55
2018-05-09T02:04:59.319Z,1007.52
2018-05-09T02:05:59.385Z,1007.53
2018-05-09T02:06:59.322Z,1007.53
2018-05-09T02:07:59.321Z,1007.55
2018-05-09T02:08:59.321Z,1007.53
2018-05-09T02:09:59.322Z,1007.54
2018-05-09T02:10:59.316Z,1007.55
2018-05-09T02:11:59.316Z,1007.51
2018-05-09T02:12:59.313Z,1007.56
2018-05-09T02:13:59.324Z,1007.57
2018-05-09T02:14:59.319Z,1007.52
2018-05-09T02:15:59.313Z,1007.55
2018-05-09T02:16:59.313Z,1007.53
2018-05-09T02:17:59.316Z,1007.55
2018-05-09T02:18:59.312Z,1007.52
2018-05-09T02:19:59.313Z,1007.55
2018-05-09T02:20:59.316Z,1007.50
2018-05-09T02:21:59.311Z,1007.51
2018-05-09T02:22:59.312Z,1007.53
2018-05-09T02:23:59.396Z,1007.50
2018-05-09T02:24:59.309Z,1007.54
2018-05-09T02:25:59.317Z,1007.49
2018-05-09T02:26:59.319Z,1007.51
2018-05-09T02:27:59.307Z,1007.50
2018-05-09T02:28:59.307Z,1007.45
2018-05-09T02:29:59.307Z,1007.45
2018-05-09T02:30:59.320Z,1007.45
2018-05-09T02:31:59.306Z,1007.41
2018-05-09T02:32:59.307Z,1007.41
2018-05-09T02:33:59.324Z,1007.37
2018-05-09T02:34:59.304Z,1007.36
2018-05-09T02:35:59.303Z,1007.39
2018-05-09T02:36:59.307Z,1007.41
2018-05-09T02:37:59.308Z,1007.38
2018-05-09T02:38:59.302Z,1007.34
2018-05-09T02:39:59.301Z,1007.33
2018-05-09T02:40:59.301Z,1007.30
2018-05-09T02:41:59.300Z,1007.33
2018-05-09T02:42:59.299Z,1007.28
2018-05-09T02:43:59.298Z,1007.31
2018-05-09T02:44:59.299Z,1007.35
2018-05-09T02:45:59.299Z,1007.33
2018-05-09T02:46:59.322Z,1007.34
2018-05-09T02:47:59.307Z,1007.35
2018-05-09T02:48:59.298Z,1007.35
2018-05-09T02:49:59.423Z,1007.36
2018-05-09T02:50:59.293Z,1007.40
2018-05-09T02:51:59.304Z,1007.39
2018-05-09T02:52:59.294Z,1007.39
2018-05-09T02:53:59.293Z,1007.43
2018-05-09T02:54:59.289Z,1007.39
2018-05-09T02:55:59.292Z,1007.38
2018-05-09T02:56:59.289Z,1007.40
2018-05-09T02:57:59.296Z,1007.38
2018-05-09T02:58:59.293Z,1007.41
2018-05-09T02:59:59.290Z,1007.40
2018-05-09T03:00:59.290Z,1007.41
2018-05-09T03:01:59.289Z,1007.38
2018-05-09T03:02:59.290Z,1007.45
2018-05-09T03:03:59.286Z,1007.47
2018-05-09T03:04:59.281Z,1007.44
2018-05-09T03:05:59.284Z,1007.42
2018-05-09T03:06:59.282Z,1007.43
2018-05-09T03:07:59.283Z,1007.41
2018-05-09T03:08:59.281Z,1007.44
2018-05-09T03:09:59.283Z,1007.42
2018-05-09T03:10:59.280Z,1007.42
2018-05-09T03:11:59.280Z,1007.42
2018-05-09T03:12:59.277Z,1007.40
2018-05-09T03:13:59.281Z,1007.37
2018-05-09T03:14:59.294Z,1007.38
2018-05-09T03:15:59.278Z,1007.36
2018-05-09T03:16:59.276Z,1007.37
2018-05-09T03:17:59.273Z,1007.33
2018-05-09T03:18:59.272Z,1007.38
2018-05-09T03:19:59.269Z,1007.36
2018-05-09T03:20:59.271Z,1007.37
2018-05-09T03:21:59.269Z,1007.34
2018-05-09T03:22:59.269Z,1007.31
2018-05-09T03:23:59.268Z,1007.31
2018-05-09T03:24:59.271Z,1007.35
2018-05-09T03:25:59.268Z,1007.33
2018-05-09T03:26:59.266Z,1007.34
2018-05-09T03:27:59.265Z,1007.33
2018-05-09T03:28:59.267Z,1007.34
2018-05-09T03:29:59.264Z,1007.36
2018-05-09T03:30:59.263Z,1007.32
2018-05-09T03:31:59.267Z,1007.34
2018-05-09T03:32:59.264Z,1007.36
2018-05-09T03:33:59.257Z,1007.28
2018-05-09T03:34:59.257Z,1007.28
2018-05-09T03:35:59.256Z,1007.35
2018-05-09T03:36:59.258Z,1007.37
2018-05-09T03:37:59.259Z,1007.36
2018-05-09T03:38:59.260Z,1007.34
2018-05-09T03:39:59.253Z,1007.38
2018-05-09T03:40:59.253Z,1007.32
2018-05-09T03:41:59.253Z,1007.30
2018-05-09T03:42:59.262Z,1007.28
2018-05-09T03:43:59.250Z,1007.29
2018-05-09T03:44:59.249Z,1007.26
2018-05-09T03:45:59.249Z,1007.32
2018-05-09T03:46:59.246Z,1007.26
2018-05-09T03:47:59.246Z,1007.25
2018-05-09T03:48:59.242Z,1007.26
2018-05-09T03:49:59.247Z,1007.26
2018-05-09T03:50:59.244Z,1007.29
2018-05-09T03:51:59.243Z,1007.27
2018-05-09T03:52:59.244Z,1007.29
2018-05-09T03:53:59.241Z,1007.30
2018-05-09T03:54:59.241Z,1007.29
2018-05-09T03:55:59.240Z,1007.25
2018-05-09T03:56:59.241Z,1007.23
2018-05-09T03:57:59.238Z,1007.22
2018-05-09T03:58:59.240Z,1007.21
2018-05-09T03:59:59.243Z,1007.19
2018-05-09T04:00:59.239Z,1007.25
2018-05-09T04:01:59.235Z,1007.21
2018-05-09T04:02:59.230Z,1007.24
2018-05-09T04:03:59.245Z,1007.28
2018-05-09T04:04:59.232Z,1007.30
2018-05-09T04:05:59.226Z,1007.27
2018-05-09T04:06:59.230Z,1007.24
2018-05-09T04:07:59.231Z,1007.26
2018-05-09T04:08:59.227Z,1007.25
2018-05-09T04:09:59.232Z,1007.25
2018-05-09T04:10:59.296Z,1007.29
2018-05-09T04:11:59.226Z,1007.26
2018-05-09T04:12:59.226Z,1007.27
2018-05-09T04:13:59.225Z,1007.25
2018-05-09T04:14:59.224Z,1007.27
2018-05-09T04:15:59.221Z,1007.27
2018-05-09T04:16:59.220Z,1007.30
2018-05-09T04:17:59.221Z,1007.24
2018-05-09T04:18:59.223Z,1007.27
2018-05-09T04:19:59.219Z,1007.24
2018-05-09T04:20:59.292Z,1007.26
2018-05-09T04:21:59.220Z,1007.26
2018-05-09T04:22:59.221Z,1007.25
2018-05-09T04:23:59.223Z,1007.27
2018-05-09T04:24:59.218Z,1007.32
2018-05-09T04:25:59.216Z,1007.33
2018-05-09T04:26:59.216Z,1007.32
2018-05-09T04:27:59.216Z,1007.35
2018-05-09T04:28:59.215Z,1007.40
2018-05-09T04:29:59.214Z,1007.43
2018-05-09T04:30:59.222Z,1007.50
2018-05-09T04:31:59.214Z,1007.52
2018-05-09T04:32:59.215Z,1007.48
2018-05-09T04:33:59.213Z,1007.52
2018-05-09T04:34:59.215Z,1007.50
2018-05-09T04:35:59.212Z,1007.51
2018-05-09T04:36:59.213Z,1007.50
2018-05-09T04:37:59.214Z,1007.48
2018-05-09T04:38:59.214Z,1007.49
2018-05-09T04:39:59.213Z,1007.46
2018-05-09T04:40:59.211Z,1007.41
2018-05-09T04:41:59.299Z,1007.37
2018-05-09T04:42:59.212Z,1007.39
2018-05-09T04:43:59.214Z,1007.42
2018-05-09T04:44:59.208Z,1007.41
2018-05-09T04:45:59.218Z,1007.43
2018-05-09T04:46:59.223Z,1007.46
2018-05-09T04:47:59.213Z,1007.46
2018-05-09T04:48:59.214Z,1007.44
2018-05-09T04:49:59.216Z,1007.45
2018-05-09T04:50:59.219Z,1007.52
2018-05-09T04:51:59.215Z,1007.47
2018-05-09T04:52:59.214Z,1007.48
2018-05-09T04:53:59.233Z,1007.51
2018-05-09T04:54:59.225Z,1007.48
2018-05-09T04:55:59.215Z,1007.46
2018-05-09T04:56:59.216Z,1007.45
2018-05-09T04:57:59.215Z,1007.47
2018-05-09T04:58:59.217Z,1007.52
2018-05-09T04:59:59.221Z,1007.51
2018-05-09T05:00:59.223Z,1007.52
2018-05-09T05:01:59.220Z,1007.51
2018-05-09T05:02:59.222Z,1007.57
2018-05-09T05:03:59.222Z,1007.54
2018-05-09T05:04:59.225Z,1007.53
2018-05-09T05:05:59.227Z,1007.53
2018-05-09T05:06:59.297Z,1007.53
2018-05-09T05:07:59.233Z,1007.52
2018-05-09T05:08:59.227Z,1007.59
2018-05-09T05:09:59.241Z,1007.54
2018-05-09T05:10:59.238Z,1007.59
2018-05-09T05:11:59.237Z,1007.51
2018-05-09T05:12:59.239Z,1007.52
2018-05-09T05:13:59.244Z,1007.55
2018-05-09T05:14:59.240Z,1007.55
2018-05-09T05:15:59.243Z,1007.56
2018-05-09T05:16:59.248Z,1007.54
2018-05-09T05:17:59.246Z,1007.56
2018-05-09T05:18:59.249Z,1007.54
2018-05-09T05:19:59.248Z,1007.57
2018-05-09T05:20:59.251Z,1007.58
2018-05-09T05:21:59.253Z,1007.59
2018-05-09T05:22:59.258Z,1007.57
2018-05-09T05:23:59.260Z,1007.56
2018-05-09T05:24:59.262Z,1007.58
2018-05-09T05:25:59.266Z,1007.55
2018-05-09T05:26:59.358Z,1007.55
2018-05-09T05:27:59.268Z,1007.54
2018-05-09T05:28:59.274Z,1007.51
2018-05-09T05:29:59.279Z,1007.50
2018-05-09T05:30:59.280Z,1007.46
2018-05-09T05:31:59.280Z,1007.48
2018-05-09T05:32:59.286Z,1007.50
2018-05-09T05:33:59.287Z,1007.47
2018-05-09T05:34:59.332Z,1007.50
2018-05-09T05:35:59.290Z,1007.49
2018-05-09T05:36:59.295Z,1007.50
2018-05-09T05:37:59.297Z,1007.51
2018-05-09T05:38:59.299Z,1007.53
2018-05-09T05:39:59.301Z,1007.53
2018-05-09T05:40:59.304Z,1007.52
2018-05-09T05:41:59.308Z,1007.53
2018-05-09T05:42:59.309Z,1007.53
2018-05-09T05:43:59.314Z,1007.52
2018-05-09T05:44:59.381Z,1007.51
2018-05-09T05:45:59.321Z,1007.52
2018-05-09T05:46:59.320Z,1007.54
2018-05-09T05:47:59.320Z,1007.54
2018-05-09T05:48:59.328Z,1007.55
2018-05-09T05:49:59.333Z,1007.55
2018-05-09T05:50:59.334Z,1007.53
2018-05-09T05:51:59.356Z,1007.56
2018-05-09T05:52:59.337Z,1007.55
2018-05-09T05:53:59.341Z,1007.54
2018-05-09T05:54:59.344Z,1007.58
2018-05-09T05:55:59.372Z,1007.59
2018-05-09T05:56:59.350Z,1007.57
2018-05-09T05:57:59.352Z,1007.60
2018-05-09T05:58:59.356Z,1007.61
2018-05-09T05:59:59.356Z,1007.56
2018-05-09T06:00:59.362Z,1007.54
2018-05-09T06:01:59.364Z,1007.58
2018-05-09T06:02:59.370Z,1007.56
2018-05-09T06:03:59.371Z,1007.56
2018-05-09T06:04:59.383Z,1007.58
2018-05-09T06:05:59.376Z,1007.56
2018-05-09T06:06:59.382Z,1007.54
2018-05-09T06:07:59.480Z,1007.56
2018-05-09T06:08:59.386Z,1007.58
2018-05-09T06:09:59.428Z,1007.56
2018-05-09T06:10:59.392Z,1007.57
2018-05-09T06:11:59.390Z,1007.58
2018-05-09T06:12:59.400Z,1007.57
2018-05-09T06:13:59.407Z,1007.56
2018-05-09T06:14:59.405Z,1007.57
2018-05-09T06:15:59.418Z,1007.58
2018-05-09T06:16:59.412Z,1007.51
2018-05-09T06:17:59.419Z,1007.53
2018-05-09T06:18:59.441Z,1007.52
2018-05-09T06:19:59.440Z,1007.54
2018-05-09T06:20:59.424Z,1007.55
2018-05-09T06:21:59.429Z,1007.54
2018-05-09T06:22:59.435Z,1007.54
2018-05-09T06:23:59.446Z,1007.54
2018-05-09T06:24:59.454Z,1007.55
2018-05-09T06:25:59.457Z,1007.56
2018-05-09T06:26:59.451Z,1007.54
2018-05-09T06:27:59.455Z,1007.53
2018-05-09T06:28:59.460Z,1007.57
2018-05-09T06:29:59.470Z,1007.53
2018-05-09T06:30:59.543Z,1007.55
2018-05-09T06:31:59.480Z,1007.57
2018-05-09T06:32:59.479Z,1007.54
2018-05-09T06:33:59.483Z,1007.58
2018-05-09T06:34:59.488Z,1007.58
2018-05-09T06:35:59.494Z,1007.66
2018-05-09T06:36:59.497Z,1007.64
2018-05-09T06:37:59.503Z,1007.65
2018-05-09T06:38:59.508Z,1007.63
2018-05-09T06:39:59.513Z,1007.63
2018-05-09T06:40:59.516Z,1007.67
2018-05-09T06:41:59.518Z,1007.67
2018-05-09T06:42:59.523Z,1007.66
2018-05-09T06:43:59.527Z,1007.68
2018-05-09T06:44:59.533Z,1007.67
2018-05-09T06:45:59.537Z,1007.65
2018-05-09T06:46:59.545Z,1007.69
2018-05-09T06:47:59.554Z,1007.73
2018-05-09T06:48:59.551Z,1007.70
2018-05-09T06:49:59.683Z,1007.67
2018-05-09T06:50:59.560Z,1007.72
2018-05-09T06:51:59.640Z,1007.64
2018-05-09T06:52:59.571Z,1007.64
2018-05-09T06:53:59.575Z,1007.64
2018-05-09T06:54:59.579Z,1007.65
2018-05-09T06:55:59.586Z,1007.61
2018-05-09T06:56:59.593Z,1007.62
2018-05-09T06:57:59.596Z,1007.62
2018-05-09T06:58:59.659Z,1007.60
2018-05-09T06:59:59.615Z,1007.62
2018-05-09T07:00:59.618Z,1007.60
2018-05-09T07:01:59.622Z,1007.62
2018-05-09T07:02:59.627Z,1007.63
2018-05-09T07:03:59.629Z,1007.65
2018-05-09T07:04:59.637Z,1007.66
2018-05-09T07:05:59.640Z,1007.64
2018-05-09T07:06:59.643Z,1007.59
2018-05-09T07:07:59.651Z,1007.64
2018-05-09T07:08:59.655Z,1007.62
2018-05-09T07:09:59.667Z,1007.66
2018-05-09T07:10:59.667Z,1007.65
2018-05-09T07:11:59.676Z,1007.62
2018-05-09T07:12:59.677Z,1007.62
2018-05-09T07:13:59.686Z,1007.59
2018-05-09T07:14:59.694Z,1007.62
2018-05-09T07:15:59.700Z,1007.60
2018-05-09T07:16:59.702Z,1007.58
2018-05-09T07:17:59.712Z,1007.61
2018-05-09T07:18:59.719Z,1007.58
2018-05-09T07:19:59.726Z,1007.57
2018-05-09T07:20:59.732Z,1007.58
2018-05-09T07:21:59.738Z,1007.61
2018-05-09T07:22:59.817Z,1007.59
2018-05-09T07:23:59.753Z,1007.58
2018-05-09T07:24:59.754Z,1007.55
2018-05-09T07:25:59.770Z,1007.58
2018-05-09T07:26:59.775Z,1007.56
2018-05-09T07:27:59.782Z,1007.56
2018-05-09T07:28:59.787Z,1007.56
2018-05-09T07:29:59.796Z,1007.55
2018-05-09T07:30:59.800Z,1007.51
2018-05-09T07:31:59.808Z,1007.53
2018-05-09T07:32:59.814Z,1007.53
2018-05-09T07:33:59.821Z,1007.51
2018-05-09T07:34:59.831Z,1007.55
2018-05-09T07:35:59.835Z,1007.52
2018-05-09T07:36:59.845Z,1007.49
2018-05-09T07:37:59.852Z,1007.53
2018-05-09T07:38:59.859Z,1007.55
2018-05-09T07:39:59.867Z,1007.56
2018-05-09T07:40:59.874Z,1007.60
2018-05-09T07:41:59.884Z,1007.58
2018-05-09T07:42:59.888Z,1007.66
2018-05-09T07:43:59.895Z,1007.62
2018-05-09T07:44:59.903Z,1007.64
2018-05-09T07:45:59.912Z,1007.60
2018-05-09T07:46:59.917Z,1007.63
2018-05-09T07:48:00.012Z,1007.66
2018-05-09T07:48:59.941Z,1007.68
2018-05-09T07:49:59.939Z,1007.69
2018-05-09T07:50:59.955Z,1007.68
2018-05-09T07:51:59.956Z,1007.76
2018-05-09T07:52:59.963Z,1007.74
2018-05-09T07:53:59.974Z,1007.74
2018-05-09T07:54:59.980Z,1007.73
2018-05-09T07:55:59.990Z,1007.70
2018-05-09T07:56:59.996Z,1007.74
2018-05-09T07:58:00.012Z,1007.74
2018-05-09T07:59:00.012Z,1007.75
2018-05-09T08:00:00.021Z,1007.76
2018-05-09T08:01:00.031Z,1007.74
2018-05-09T08:02:00.035Z,1007.78
2018-05-09T08:03:00.045Z,1007.76
2018-05-09T08:04:00.053Z,1007.77
2018-05-09T08:05:00.063Z,1007.75
2018-05-09T08:06:00.171Z,1007.80
2018-05-09T08:07:00.077Z,1007.77
2018-05-09T08:08:00.090Z,1007.78
2018-05-09T08:09:00.095Z,1007.77
2018-05-09T08:10:00.105Z,1007.75
2018-05-09T08:11:00.157Z,1007.76
2018-05-09T08:12:00.125Z,1007.74
2018-05-09T08:13:00.131Z,1007.74
2018-05-09T08:14:00.147Z,1007.78
2018-05-09T08:15:00.152Z,1007.76
2018-05-09T08:16:00.163Z,1007.74
2018-05-09T08:17:00.171Z,1007.77
2018-05-09T08:18:00.178Z,1007.72
2018-05-09T08:19:00.191Z,1007.66
2018-05-09T08:20:00.197Z,1007.66
2018-05-09T08:21:00.204Z,1007.65
2018-05-09T08:22:00.214Z,1007.66
2018-05-09T08:23:00.262Z,1007.63
2018-05-09T08:24:00.232Z,1007.65
2018-05-09T08:25:00.242Z,1007.62
2018-05-09T08:26:00.266Z,1007.61
2018-05-09T08:27:00.266Z,1007.65
2018-05-09T08:28:00.265Z,1007.63
2018-05-09T08:29:00.290Z,1007.66
2018-05-09T08:30:00.288Z,1007.70
2018-05-09T08:31:00.300Z,1007.69
2018-05-09T08:32:00.308Z,1007.73
2018-05-09T08:33:00.315Z,1007.73
2018-05-09T08:34:00.325Z,1007.75
2018-05-09T08:35:00.338Z,1007.77
2018-05-09T08:36:00.349Z,1007.77
2018-05-09T08:37:00.355Z,1007.72
2018-05-09T08:38:00.365Z,1007.82
2018-05-09T08:39:00.383Z,1007.88
2018-05-09T08:40:00.389Z,1007.80
2018-05-09T08:41:00.399Z,1007.79
2018-05-09T08:42:00.407Z,1007.87
2018-05-09T08:43:00.417Z,1007.87
2018-05-09T08:44:00.528Z,1007.81
2018-05-09T08:45:00.439Z,1007.79
2018-05-09T08:46:00.446Z,1007.84
2018-05-09T08:47:00.457Z,1007.78
2018-05-09T08:48:00.467Z,1007.76
2018-05-09T08:49:00.485Z,1007.76
2018-05-09T08:50:00.492Z,1007.79
2018-05-09T08:51:00.498Z,1007.75
2018-05-09T08:52:00.509Z,1007.70
2018-05-09T08:53:00.516Z,1007.67
2018-05-09T08:54:00.523Z,1007.59
2018-05-09T08:55:00.543Z,1007.56
2018-05-09T08:56:00.542Z,1007.48
2018-05-09T08:57:00.554Z,1007.45
2018-05-09T08:58:00.564Z,1007.46
2018-05-09T08:59:00.640Z,1007.42
2018-05-09T09:00:00.590Z,1007.40
2018-05-09T09:01:00.595Z,1007.46
2018-05-09T09:02:00.600Z,1007.48
2018-05-09T09:03:00.608Z,1007.47
2018-05-09T09:04:00.617Z,1007.47
2018-05-09T09:05:00.626Z,1007.43
2018-05-09T09:06:00.634Z,1007.34
2018-05-09T09:07:00.657Z,1007.35
2018-05-09T09:08:00.647Z,1007.51
2018-05-09T09:09:00.653Z,1007.44
2018-05-09T09:10:00.664Z,1007.39
2018-05-09T09:11:00.678Z,1007.33
2018-05-09T09:12:00.677Z,1007.34
2018-05-09T09:13:00.685Z,1007.33
2018-05-09T09:14:00.715Z,1007.31
2018-05-09T09:15:00.695Z,1007.34
2018-05-09T09:16:00.700Z,1007.34
2018-05-09T09:17:00.706Z,1007.32
2018-05-09T09:18:00.715Z,1007.35
2018-05-09T09:19:00.729Z,1007.29
2018-05-09T09:20:00.725Z,1007.30
2018-05-09T09:21:00.732Z,1007.33
2018-05-09T09:22:00.738Z,1007.31
2018-05-09T09:23:00.748Z,1007.34
2018-05-09T09:24:00.747Z,1007.29
2018-05-09T09:25:00.755Z,1007.28
2018-05-09T09:26:00.761Z,1007.28
2018-05-09T09:27:00.769Z,1007.31
2018-05-09T09:28:00.770Z,1007.27
2018-05-09T09:29:00.770Z,1007.27
2018-05-09T09:30:00.784Z,1007.29
2018-05-09T09:31:00.784Z,1007.27
2018-05-09T09:32:00.791Z,1007.27
2018-05-09T09:33:00.793Z,1007.25
2018-05-09T09:34:00.808Z,1007.21
2018-05-09T09:35:00.804Z,1007.19
2018-05-09T09:36:00.813Z,1007.23
2018-05-09T09:37:00.820Z,1007.22
2018-05-09T09:38:00.823Z,1007.27
2018-05-09T09:39:00.827Z,1007.23
2018-05-09T09:40:00.832Z,1007.23
2018-05-09T09:41:00.838Z,1007.25
2018-05-09T09:42:00.843Z,1007.20
2018-05-09T09:43:00.843Z,1007.23
2018-05-09T09:44:00.857Z,1007.21
2018-05-09T09:45:00.862Z,1007.23
2018-05-09T09:46:00.882Z,1007.13
2018-05-09T09:47:00.876Z,1007.14
2018-05-09T09:48:00.875Z,1007.12
2018-05-09T09:49:00.882Z,1007.09
2018-05-09T09:50:00.884Z,1007.09
2018-05-09T09:51:00.919Z,1007.07
2018-05-09T09:52:00.897Z,1007.07
2018-05-09T09:53:00.898Z,1007.02
2018-05-09T09:54:00.904Z,1007.02
2018-05-09T09:55:00.910Z,1007.05
2018-05-09T09:56:00.912Z,1007.05
2018-05-09T09:57:00.918Z,1007.06
2018-05-09T09:58:00.926Z,1006.96
2018-05-09T09:59:00.929Z,1006.95
2018-05-09T10:00:00.931Z,1006.96
2018-05-09T10:01:00.970Z,1006.99
2018-05-09T10:02:00.944Z,1007.04
2018-05-09T10:03:00.950Z,1006.97
2018-05-09T10:04:00.955Z,1007.01
2018-05-09T10:05:00.963Z,1006.93
2018-05-09T10:06:00.963Z,1006.97
2018-05-09T10:07:00.962Z,1006.95
2018-05-09T10:08:00.999Z,1006.98
2018-05-09T10:09:00.975Z,1006.99
2018-05-09T10:10:00.982Z,1006.97
2018-05-09T10:11:00.986Z,1006.91
2018-05-09T10:12:00.991Z,1006.97
2018-05-09T10:13:00.997Z,1006.91
2018-05-09T10:14:01.001Z,1006.91
2018-05-09T10:15:01.009Z,1006.86
2018-05-09T10:16:01.017Z,1006.88
2018-05-09T10:17:01.018Z,1006.92
2018-05-09T10:18:01.024Z,1006.87
2018-05-09T10:19:01.035Z,1006.94
2018-05-09T10:20:01.030Z,1006.83
2018-05-09T10:21:01.039Z,1006.83
2018-05-09T10:22:01.048Z,1006.89
2018-05-09T10:23:01.048Z,1006.90
2018-05-09T10:24:01.123Z,1006.88
2018-05-09T10:25:01.059Z,1006.88
2018-05-09T10:26:01.087Z,1006.88
2018-05-09T10:27:01.073Z,1006.81
2018-05-09T10:28:01.084Z,1006.83
2018-05-09T10:29:01.086Z,1006.86
2018-05-09T10:30:01.090Z,1006.84
2018-05-09T10:31:01.092Z,1006.83
2018-05-09T10:32:01.096Z,1006.80
2018-05-09T10:33:01.140Z,1006.77
2018-05-09T10:34:02.978Z,1006.77
2018-05-09T10:35:01.214Z,1006.71
2018-05-09T10:36:01.356Z,1006.75
2018-05-09T10:37:01.126Z,1006.76
2018-05-09T10:38:01.523Z,1006.75
2018-05-09T10:39:01.146Z,1006.74
2018-05-09T10:40:01.242Z,1006.74
2018-05-09T10:41:01.289Z,1006.71
2018-05-09T10:43:01.185Z,1006.76
2018-05-09T10:44:01.161Z,1006.74
2018-05-09T10:45:01.318Z,1006.78
2018-05-09T10:46:01.169Z,1006.72
2018-05-09T10:47:01.175Z,1006.71
2018-05-09T10:48:01.278Z,1006.69
2018-05-09T10:49:02.172Z,1006.73
2018-05-09T10:50:01.205Z,1006.72
2018-05-09T10:51:01.257Z,1006.77
2018-05-09T10:52:01.667Z,1006.74
2018-05-09T10:53:01.393Z,1006.72
2018-05-09T10:54:01.578Z,1006.72
2018-05-09T10:55:01.520Z,1006.65
2018-05-09T10:56:01.489Z,1006.68
2018-05-09T10:57:01.228Z,1006.73
2018-05-09T10:58:01.235Z,1006.65
2018-05-09T10:59:01.239Z,1006.63
2018-05-09T11:00:01.249Z,1006.63
2018-05-09T11:01:01.259Z,1006.56
2018-05-09T11:02:01.259Z,1006.56
2018-05-09T11:03:01.263Z,1006.59
2018-05-09T11:04:01.266Z,1006.63
2018-05-09T11:05:01.303Z,1006.63
2018-05-09T11:06:01.278Z,1006.65
2018-05-09T11:07:01.303Z,1006.71
2018-05-09T11:08:01.971Z,1006.63
2018-05-09T11:09:01.294Z,1006.65
2018-05-09T11:10:01.304Z,1006.63
2018-05-09T11:11:01.304Z,1006.64
2018-05-09T11:12:01.323Z,1006.69
2018-05-09T11:13:01.318Z,1006.66
2018-05-09T11:14:01.323Z,1006.67
2018-05-09T11:15:01.328Z,1006.64
2018-05-09T11:16:01.334Z,1006.67
2018-05-09T11:17:01.352Z,1006.72
2018-05-09T11:18:01.345Z,1006.66
2018-05-09T11:19:01.350Z,1006.68
2018-05-09T11:20:01.353Z,1006.63
2018-05-09T11:21:01.360Z,1006.62
2018-05-09T11:22:01.372Z,1006.59
2018-05-09T11:23:01.370Z,1006.41
2018-05-09T11:24:01.375Z,1006.67
2018-05-09T11:25:01.387Z,1006.64
2018-05-09T11:26:01.385Z,1006.63
2018-05-09T11:27:01.392Z,1006.63
2018-05-09T11:28:01.398Z,1006.60
2018-05-09T11:29:01.405Z,1006.60
2018-05-09T11:30:01.409Z,1006.57
2018-05-09T11:31:01.413Z,1006.53
2018-05-09T11:32:01.416Z,1006.58
2018-05-09T11:33:01.424Z,1006.53
2018-05-09T11:34:01.433Z,1006.53
2018-05-09T11:35:01.433Z,1006.55
2018-05-09T11:36:01.443Z,1006.46
2018-05-09T11:37:01.447Z,1006.53
2018-05-09T11:38:01.454Z,1006.55
2018-05-09T11:39:01.459Z,1006.42
2018-05-09T11:40:01.466Z,1006.42
2018-05-09T11:41:01.472Z,1006.44
2018-05-09T11:42:01.481Z,1006.34
2018-05-09T11:43:01.481Z,1006.24
2018-05-09T11:44:01.488Z,1006.28
2018-05-09T11:45:01.495Z,1006.26
2018-05-09T11:46:01.506Z,1006.25
2018-05-09T11:47:01.504Z,1006.30
2018-05-09T11:48:01.510Z,1006.27
2018-05-09T11:49:01.520Z,1006.33
2018-05-09T11:50:01.520Z,1006.30
2018-05-09T11:51:01.529Z,1006.28
2018-05-09T11:52:01.533Z,1006.31
2018-05-09T11:53:01.546Z,1006.33
2018-05-09T11:54:01.545Z,1006.26
2018-05-09T11:55:01.552Z,1006.31
2018-05-09T11:56:01.559Z,1006.30
2018-05-09T11:57:01.563Z,1006.30
2018-05-09T11:58:01.570Z,1006.32
2018-05-09T11:59:01.575Z,1006.31
2018-05-09T12:00:01.582Z,1006.27
2018-05-09T12:01:01.591Z,1006.24
2018-05-09T12:02:01.596Z,1006.16
2018-05-09T12:03:01.600Z,1006.23
2018-05-09T12:04:01.602Z,1006.44
2018-05-09T12:05:01.608Z,1006.24
2018-05-09T12:06:01.619Z,1006.21
2018-05-09T12:07:01.621Z,1006.19